Список аэропортов
Фактическая погода:

24 июня, 23:20
Температура: +20°C (+20.0*)
Ветер: сев.-восточный 2 м/с
Давление: *761 мм
Без существ. явл.
Время (МСК)Темп. СВетерВлажностьДавлениеОблачностьОсадки
21:00+23ЮЗ, 4 м/с60%1015 гПаоблачно
22:00+22ЮЗ, 2 м/с65%1015 гПаоблачно
23:00+21З, 1 м/с74%1016 гПаоблачно
25 июня
00:00+21С, 1 м/с77%1016 гПаоблачно
01:00+20СВ, 1 м/с82%1015 гПаоблачно
02:00+19СВ, 1 м/с87%1015 гПаоблачно
03:00+18В, 2 м/с92%1014 гПас прояснениями
04:00+18СВ, 2 м/с93%1014 гПаоблачно
05:00+18СВ, 2 м/с94%1014 гПаоблачно
06:00+17СВ, 2 м/с96%1014 гПамалооблачно
07:00+17СВ, 2 м/с97%1014 гПамалооблачно
08:00+18СВ, 3 м/с89%1014 гПамалооблачно
09:00+20СВ, 2 м/с75%1014 гПамалооблачно
10:00+22В, 2 м/с62%1015 гПамалооблачно
11:00+24ЮВ, 1 м/с57%1015 гПамалооблачно
12:00+25ЮЗ, 2 м/с56%1014 гПаоблачно
13:00+26ЮЗ, 3 м/с57%1014 гПаоблачносл. дождь
14:00+25ЮЗ, 4 м/с60%1014 гПаоблачнодождь
15:00+25ЮЗ, 4 м/с60%1014 гПаоблачно
16:00+25ЮЗ, 5 м/с62%1014 гПаоблачно
17:00+25З, 5 м/с61%1014 гПаоблачносл. дождь
18:00+24СЗ, 3 м/с64%1014 гПаоблачнодождь
19:00+24СЗ, 2 м/с64%1014 гПаоблачно
20:00+24З, 2 м/с67%1014 гПаоблачносл. дождь
21:00+23СЗ, 2 м/с72%1014 гПаоблачносл. дождь
22:00+22С, 2 м/с83%1014 гПамалооблачнодождь
23:00+21С, 1 м/с90%1014 гПамалооблачнодождь
26 июня
00:00+20С, 1 м/с92%1015 гПаясно
01:00+20С, 2 м/с95%1015 гПаясно
02:00+19С, 2 м/с94%1014 гПаясно
03:00+18СВ, 3 м/с95%1014 гПамалооблачно
04:00+18СВ, 4 м/с87%1014 гПаясно
05:00+17СВ, 5 м/с80%1014 гПаясно
06:00+17СВ, 4 м/с80%1014 гПаясно
07:00+16СВ, 4 м/с82%1014 гПаясно
08:00+17СВ, 4 м/с79%1014 гПаясно
09:00+19С, 4 м/с69%1014 гПаясно
10:00+22С, 5 м/с58%1014 гПаясно
11:00+23С, 5 м/с53%1014 гПаясно
12:00+25С, 4 м/с50%1013 гПаясно
13:00+26С, 4 м/с46%1013 гПаясно
14:00+27С, 4 м/с41%1012 гПаясно
15:00+28С, 4 м/с38%1012 гПаясно
16:00+28С, 5 м/с36%1012 гПамалооблачно
17:00+28С, 6 м/с35%1011 гПамалооблачно
18:00+28С, 7 м/с36%1012 гПаясно
19:00+27С, 8 м/с37%1012 гПаясно
20:00+26С, 8 м/с40%1012 гПаясно
21:00+24С, 8 м/с43%1012 гПаясно